Time,TemperatureF,DewpointF,PressureIn,WindDirection,WindDirectionDegrees,WindSpeedMPH,WindSpeedGustMPH,Humidity,HourlyPrecipIn,Conditions,Clouds,dailyrainin,SoftwareType,DateUTC
2014-01-01 00:01:00,24.9,21.6,30.42,WNW,291,2.0,3.0,87,0.00,,---,0.00,VWS V14.01,2014-01-01 07:01:00,
2014-01-01 00:06:00,25.0,21.7,30.41,WNW,288,2.0,4.0,87,0.00,,---,0.00,VWS V14.01,2014-01-01 07:06:00,
2014-01-01 00:11:00,25.0,21.7,30.41,WNW,287,4.0,4.0,87,0.00,,---,0.00,VWS V14.01,2014-01-01 07:11:00,
2014-01-01 00:16:00,24.7,21.4,30.40,WNW,287,3.0,3.0,87,0.00,,---,0.00,VWS V14.01,2014-01-01 07:16:00,
2014-01-01 00:21:00,24.6,21.6,30.40,WNW,287,0.0,0.0,88,0.00,,---,0.00,VWS V14.01,2014-01-01 07:21:00,
2014-01-01 00:22:00,24.5,21.5,30.40,WNW,287,0.0,0.0,88,0.00,,---,0.00,VWS V14.01,2014-01-01 07:22:00,
2014-01-01 00:27:00,24.3,21.0,30.39,WNW,287,0.0,0.0,87,0.00,,---,0.00,VWS V14.01,2014-01-01 07:27:00,
2014-01-01 00:32:00,24.1,21.1,30.39,WNW,287,2.0,2.0,88,0.00,,---,0.00,VWS V14.01,2014-01-01 07:32:00,
2014-01-01 00:37:00,23.8,21.0,30.39,WNW,287,2.0,3.0,89,0.00,,---,0.00,VWS V14.01,2014-01-01 07:37:00,
2014-01-01 00:42:00,23.5,20.7,30.38,WNW,287,3.0,3.0,89,0.00,,---,0.00,VWS V14.01,2014-01-01 07:42:00,
2014-01-01 00:47:00,23.3,20.5,30.38,WNW,287,2.0,3.0,89,0.00,,---,0.00,VWS V14.01,2014-01-01 07:47:00,
2014-01-01 00:52:00,23.0,20.2,30.37,WNW,287,1.0,3.0,89,0.00,,---,0.00,VWS V14.01,2014-01-01 07:52:00,
2014-01-01 00:57:00,22.6,19.9,30.37,WNW,287,0.0,0.0,89,0.00,,---,0.00,VWS V14.01,2014-01-01 07:57:00,
2014-01-01 01:00:00,22.6,19.9,30.37,WNW,287,0.0,0.0,89,0.00,,---,0.00,VWS V14.01,2014-01-01 08:00:00,
2014-01-01 01:05:00,22.4,19.7,30.36,WNW,287,0.0,0.0,89,0.00,,---,0.00,VWS V14.01,2014-01-01 08:05:00,
2014-01-01 01:10:00,22.2,19.5,30.36,WNW,287,0.0,0.0,89,0.00,,---,0.00,VWS V14.01,2014-01-01 08:10:00,
2014-01-01 01:15:00,22.2,19.7,30.35,WNW,287,2.0,2.0,90,0.00,,---,0.00,VWS V14.01,2014-01-01 08:15:00,
2014-01-01 01:20:00,22.4,20.2,30.35,WNW,287,4.0,4.0,91,0.00,,---,0.00,VWS V14.01,2014-01-01 08:20:00,
2014-01-01 01:25:00,22.9,20.7,30.35,WNW,287,0.0,3.0,91,0.00,,---,0.00,VWS V14.01,2014-01-01 08:25:00,
2014-01-01 01:30:00,23.1,21.1,30.34,WNW,287,0.0,0.0,92,0.00,,---,0.00,VWS V14.01,2014-01-01 08:30:00,
2014-01-01 01:35:00,23.5,21.5,30.33,WNW,287,3.0,3.0,92,0.00,,---,0.00,VWS V14.01,2014-01-01 08:35:00,
2014-01-01 01:40:00,23.9,21.9,30.33,WNW,287,5.0,6.0,92,0.00,,---,0.00,VWS V14.01,2014-01-01 08:40:00,
2014-01-01 01:45:00,24.3,22.3,30.33,WNW,287,2.0,4.0,92,0.00,,---,0.00,VWS V14.01,2014-01-01 08:45:00,
2014-01-01 01:50:00,24.5,22.2,30.33,WNW,287,0.0,1.0,91,0.00,,---,0.00,VWS V14.01,2014-01-01 08:50:00,
2014-01-01 01:55:00,24.7,22.5,30.32,WNW,287,2.0,4.0,91,0.00,,---,0.00,VWS V14.01,2014-01-01 08:55:00,
2014-01-01 02:00:00,24.9,22.4,30.32,WNW,287,2.0,2.0,90,0.00,,---,0.00,VWS V14.01,2014-01-01 09:00:00,
2014-01-01 02:05:00,25.0,22.5,30.33,WNW,287,0.0,0.0,90,0.00,,---,0.00,VWS V14.01,2014-01-01 09:05:00,
2014-01-01 02:10:00,25.1,22.6,30.32,WNW,287,0.0,0.0,90,0.00,,---,0.00,VWS V14.01,2014-01-01 09:10:00,
2014-01-01 02:15:00,25.1,22.3,30.32,WNW,287,2.0,2.0,89,0.00,,---,0.00,VWS V14.01,2014-01-01 09:15:00,
2014-01-01 02:20:00,25.2,22.4,30.32,WNW,287,0.0,0.0,89,0.00,,---,0.00,VWS V14.01,2014-01-01 09:20:00,
2014-01-01 02:25:00,25.2,22.4,30.32,WNW,287,1.0,2.0,89,0.00,,---,0.00,VWS V14.01,2014-01-01 09:25:00,
2014-01-01 02:30:00,25.4,22.4,30.31,WNW,287,0.0,0.0,88,0.00,,---,0.00,VWS V14.01,2014-01-01 09:30:00,
2014-01-01 02:35:00,25.6,22.3,30.31,WNW,287,0.0,0.0,87,0.00,,---,0.00,VWS V14.01,2014-01-01 09:35:00,
2014-01-01 02:40:00,25.8,22.2,30.30,WNW,287,2.0,2.0,86,0.00,,---,0.00,VWS V14.01,2014-01-01 09:40:00,
2014-01-01 02:45:00,26.0,22.4,30.31,WNW,287,1.0,1.0,86,0.00,,---,0.00,VWS V14.01,2014-01-01 09:45:00,
2014-01-01 02:50:00,26.1,22.2,30.30,WNW,287,0.0,0.0,85,0.00,,---,0.00,VWS V14.01,2014-01-01 09:50:00,
2014-01-01 02:55:00,26.2,22.3,30.30,WNW,288,2.0,2.0,85,0.00,,---,0.00,VWS V14.01,2014-01-01 09:55:00,
2014-01-01 03:01:00,26.1,22.2,30.30,WNW,287,0.0,0.0,85,0.00,,---,0.00,VWS V14.01,2014-01-01 10:01:00,
2014-01-01 03:06:00,26.1,22.2,30.29,WNW,287,3.0,3.0,85,0.00,,---,0.00,VWS V14.01,2014-01-01 10:06:00,
2014-01-01 03:11:00,26.2,22.3,30.29,WNW,288,5.0,7.0,85,0.00,,---,0.00,VWS V14.01,2014-01-01 10:11:00,
2014-01-01 03:16:00,26.3,22.4,30.29,WNW,288,5.0,5.0,85,0.00,,---,0.00,VWS V14.01,2014-01-01 10:16:00,
2014-01-01 03:21:00,26.5,22.3,30.29,WNW,288,1.0,2.0,84,0.00,,---,0.00,VWS V14.01,2014-01-01 10:21:00,
2014-01-01 03:26:00,26.5,22.9,30.29,WNW,288,5.0,5.0,86,0.00,,---,0.00,VWS V14.01,2014-01-01 10:26:00,
2014-01-01 03:31:00,26.4,23.1,30.29,West,269,7.0,8.0,87,0.01,,---,0.01,VWS V14.01,2014-01-01 10:31:00,
2014-01-01 03:36:00,26.2,23.1,30.28,WNW,290,5.0,5.0,88,0.01,,---,0.01,VWS V14.01,2014-01-01 10:36:00,
2014-01-01 03:41:00,25.9,23.1,30.28,WNW,291,6.0,8.0,89,0.01,,---,0.01,VWS V14.01,2014-01-01 10:41:00,
2014-01-01 03:46:00,25.7,23.2,30.28,WNW,291,4.0,4.0,90,0.01,,---,0.01,VWS V14.01,2014-01-01 10:46:00,
2014-01-01 03:51:00,25.5,23.0,30.27,WNW,291,4.0,7.0,90,0.01,,---,0.01,VWS V14.01,2014-01-01 10:51:00,
2014-01-01 03:56:00,25.4,22.9,30.27,WNW,291,8.0,8.0,90,0.01,,---,0.01,VWS V14.01,2014-01-01 10:56:00,
2014-01-01 04:01:00,25.3,23.0,30.28,WNW,291,7.0,8.0,91,0.01,,---,0.01,VWS V14.01,2014-01-01 11:01:00,
2014-01-01 04:06:00,25.3,23.0,30.27,WNW,292,8.0,8.0,91,0.01,,---,0.01,VWS V14.01,2014-01-01 11:06:00,
2014-01-01 04:11:00,25.3,23.0,30.27,WNW,292,5.0,5.0,91,0.01,,---,0.01,VWS V14.01,2014-01-01 11:11:00,
2014-01-01 04:16:00,25.2,23.0,30.27,WNW,303,9.0,12.0,91,0.01,,---,0.01,VWS V14.01,2014-01-01 11:16:00,
2014-01-01 04:21:00,25.1,22.6,30.27,NW,309,9.0,9.0,90,0.01,,---,0.01,VWS V14.01,2014-01-01 11:21:00,
2014-01-01 04:26:00,25.1,22.6,30.27,NW,312,12.0,13.0,90,0.01,,---,0.01,VWS V14.01,2014-01-01 11:26:00,
2014-01-01 04:31:00,25.0,22.5,30.27,NW,318,8.0,8.0,90,0.00,,---,0.01,VWS V14.01,2014-01-01 11:31:00,
2014-01-01 04:36:00,24.9,22.4,30.27,NW,318,7.0,8.0,90,0.00,,---,0.01,VWS V14.01,2014-01-01 11:36:00,
2014-01-01 04:41:00,24.8,22.3,30.27,NW,321,8.0,11.0,90,0.00,,---,0.01,VWS V14.01,2014-01-01 11:41:00,
2014-01-01 04:46:00,24.7,22.5,30.28,NW,321,7.0,7.0,91,0.00,,---,0.01,VWS V14.01,2014-01-01 11:46:00,
2014-01-01 04:51:00,24.5,22.0,30.28,NW,320,5.0,7.0,90,0.00,,---,0.01,VWS V14.01,2014-01-01 11:51:00,
2014-01-01 04:56:00,24.4,22.2,30.27,NW,320,7.0,7.0,91,0.00,,---,0.01,VWS V14.01,2014-01-01 11:56:00,
2014-01-01 05:01:00,24.2,22.0,30.27,NW,313,6.0,6.0,91,0.00,,---,0.01,VWS V14.01,2014-01-01 12:01:00,
2014-01-01 05:06:00,24.0,22.0,30.27,NW,312,5.0,6.0,92,0.00,,---,0.01,VWS V14.01,2014-01-01 12:06:00,
2014-01-01 05:11:00,23.8,21.8,30.27,NW,311,7.0,9.0,92,0.00,,---,0.01,VWS V14.01,2014-01-01 12:11:00,
2014-01-01 05:16:00,23.8,21.8,30.27,NW,311,4.0,4.0,92,0.00,,---,0.01,VWS V14.01,2014-01-01 12:16:00,
2014-01-01 05:21:00,23.8,22.1,30.27,NW,311,6.0,6.0,93,0.00,,---,0.01,VWS V14.01,2014-01-01 12:21:00,
2014-01-01 05:26:00,23.6,21.9,30.27,NW,310,6.0,6.0,93,0.00,,---,0.01,VWS V14.01,2014-01-01 12:26:00,
2014-01-01 05:31:00,23.5,21.8,30.27,NW,310,3.0,5.0,93,0.00,,---,0.01,VWS V14.01,2014-01-01 12:31:00,
2014-01-01 05:36:00,23.4,21.4,30.28,NW,309,5.0,6.0,92,0.00,,---,0.01,VWS V14.01,2014-01-01 12:36:00,
2014-01-01 05:41:00,23.3,21.6,30.28,NW,309,3.0,5.0,93,0.00,,---,0.01,VWS V14.01,2014-01-01 12:41:00,
2014-01-01 05:46:00,23.2,21.5,30.28,NW,313,14.0,14.0,93,0.00,,---,0.01,VWS V14.01,2014-01-01 12:46:00,
2014-01-01 05:51:00,23.6,21.6,30.27,WNW,286,9.0,11.0,92,0.00,,---,0.01,VWS V14.01,2014-01-01 12:51:00,
2014-01-01 05:56:00,23.8,21.3,30.27,WNW,300,12.0,12.0,90,0.00,,---,0.01,VWS V14.01,2014-01-01 12:56:00,
2014-01-01 06:01:00,24.0,21.2,30.28,WNW,298,9.0,10.0,89,0.00,,---,0.01,VWS V14.01,2014-01-01 13:01:00,
2014-01-01 06:06:00,24.1,21.1,30.28,WNW,294,8.0,11.0,88,0.00,,---,0.01,VWS V14.01,2014-01-01 13:06:00,
2014-01-01 06:11:00,24.3,21.0,30.28,West,280,16.0,17.0,87,0.00,,---,0.01,VWS V14.01,2014-01-01 13:11:00,
2014-01-01 06:16:00,24.3,20.7,30.28,West,281,15.0,15.0,86,0.00,,---,0.01,VWS V14.01,2014-01-01 13:16:00,
2014-01-01 06:21:00,24.4,20.8,30.28,WNW,286,10.0,10.0,86,0.00,,---,0.01,VWS V14.01,2014-01-01 13:21:00,
2014-01-01 06:26:00,24.3,20.5,30.28,West,281,14.0,14.0,85,0.00,,---,0.01,VWS V14.01,2014-01-01 13:26:00,
2014-01-01 06:31:00,24.4,20.3,30.28,WNW,291,16.0,16.0,84,0.00,,---,0.01,VWS V14.01,2014-01-01 13:31:00,
2014-01-01 06:37:00,24.4,20.3,30.29,WNW,296,14.0,15.0,84,0.00,,---,0.01,VWS V14.01,2014-01-01 13:37:00,
2014-01-01 06:42:00,24.4,20.3,30.29,WNW,291,19.0,19.0,84,0.00,,---,0.01,VWS V14.01,2014-01-01 13:42:00,
2014-01-01 06:47:00,23.9,20.1,30.29,West,272,23.0,23.0,85,0.00,,---,0.01,VWS V14.01,2014-01-01 13:47:00,
2014-01-01 06:52:00,23.4,20.1,30.29,WNW,295,18.0,18.0,87,0.00,,---,0.01,VWS V14.01,2014-01-01 13:52:00,
2014-01-01 06:57:00,23.3,20.0,30.30,WNW,288,10.0,13.0,87,0.00,,---,0.01,VWS V14.01,2014-01-01 13:57:00,
2014-01-01 07:02:00,23.2,19.6,30.30,WNW,284,12.0,14.0,86,0.00,,---,0.01,VWS V14.01,2014-01-01 14:02:00,
2014-01-01 07:07:00,23.4,19.6,30.29,WNW,284,14.0,15.0,85,0.00,,---,0.01,VWS V14.01,2014-01-01 14:07:00,
2014-01-01 07:12:00,23.7,19.3,30.30,WNW,288,11.0,12.0,83,0.00,,---,0.01,VWS V14.01,2014-01-01 14:12:00,
2014-01-01 07:17:00,23.9,18.9,30.30,WNW,288,11.0,11.0,81,0.00,,---,0.01,VWS V14.01,2014-01-01 14:17:00,
2014-01-01 07:22:00,23.9,18.6,30.30,WNW,287,8.0,10.0,80,0.00,,---,0.01,VWS V14.01,2014-01-01 14:22:00,
2014-01-01 07:27:00,23.9,18.6,30.30,West,275,10.0,10.0,80,0.00,,---,0.01,VWS V14.01,2014-01-01 14:27:00,
2014-01-01 07:32:00,23.4,18.4,30.30,West,279,11.0,14.0,81,0.00,,---,0.01,VWS V14.01,2014-01-01 14:32:00,
2014-01-01 07:37:00,23.4,18.1,30.31,WNW,289,8.0,9.0,80,0.00,,---,0.01,VWS V14.01,2014-01-01 14:37:00,
2014-01-01 07:42:00,23.5,17.7,30.31,WNW,289,7.0,9.0,78,0.00,,---,0.01,VWS V14.01,2014-01-01 14:42:00,
2014-01-01 07:47:00,23.5,17.7,30.32,WNW,300,12.0,12.0,78,0.00,,---,0.01,VWS V14.01,2014-01-01 14:47:00,
2014-01-01 07:52:00,23.5,18.0,30.32,NW,310,11.0,11.0,79,0.00,,---,0.01,VWS V14.01,2014-01-01 14:52:00,
2014-01-01 07:57:00,23.4,18.1,30.32,NW,305,8.0,9.0,80,0.00,,---,0.01,VWS V14.01,2014-01-01 14:57:00,
2014-01-01 08:02:00,23.3,17.8,30.32,WNW,302,8.0,8.0,79,0.00,,---,0.01,VWS V14.01,2014-01-01 15:02:00,
2014-01-01 08:07:00,23.3,18.1,30.32,WNW,300,5.0,12.0,80,0.00,,---,0.01,VWS V14.01,2014-01-01 15:07:00,
2014-01-01 08:12:00,23.2,18.0,30.32,WNW,300,8.0,9.0,80,0.00,,---,0.01,VWS V14.01,2014-01-01 15:12:00,
2014-01-01 08:17:00,23.1,18.4,30.33,WNW,296,6.0,9.0,82,0.00,,---,0.01,VWS V14.01,2014-01-01 15:17:00,
2014-01-01 08:22:00,22.7,18.3,30.33,WNW,294,8.0,9.0,83,0.00,,---,0.01,VWS V14.01,2014-01-01 15:22:00,
2014-01-01 08:27:00,22.5,17.9,30.33,WNW,294,8.0,8.0,82,0.00,,---,0.01,VWS V14.01,2014-01-01 15:27:00,
2014-01-01 08:32:00,22.5,17.3,30.33,WNW,294,6.0,7.0,80,0.00,,---,0.01,VWS V14.01,2014-01-01 15:32:00,
2014-01-01 08:37:00,23.2,15.5,30.34,WNW,294,6.0,7.0,72,0.00,,---,0.01,VWS V14.01,2014-01-01 15:37:00,
2014-01-01 08:42:00,23.7,16.3,30.34,WNW,293,7.0,9.0,73,0.00,,---,0.01,VWS V14.01,2014-01-01 15:42:00,
2014-01-01 08:47:00,23.6,15.6,30.34,WNW,293,5.0,6.0,71,0.00,,---,0.01,VWS V14.01,2014-01-01 15:47:00,
2014-01-01 08:52:00,23.6,14.9,30.34,WNW,294,8.0,9.0,69,0.00,,---,0.01,VWS V14.01,2014-01-01 15:52:00,
2014-01-01 08:57:00,23.6,14.6,30.35,NW,313,8.0,10.0,68,0.00,,---,0.01,VWS V14.01,2014-01-01 15:57:00,
2014-01-01 09:02:00,23.7,14.4,30.35,NW,306,7.0,8.0,67,0.00,,---,0.01,VWS V14.01,2014-01-01 16:02:00,
2014-01-01 09:07:00,23.4,13.4,30.35,NW,311,10.0,11.0,65,0.00,,---,0.01,VWS V14.01,2014-01-01 16:07:00,
2014-01-01 09:12:00,23.5,13.1,30.35,NW,315,10.0,11.0,64,0.00,,---,0.01,VWS V14.01,2014-01-01 16:12:00,
2014-01-01 09:17:00,23.0,13.4,30.36,NW,324,12.0,12.0,66,0.00,,---,0.01,VWS V14.01,2014-01-01 16:17:00,
2014-01-01 09:22:00,23.0,13.4,30.36,NW,324,9.0,9.0,66,0.00,,---,0.01,VWS V14.01,2014-01-01 16:22:00,
2014-01-01 09:27:00,23.2,13.5,30.37,NNW,328,12.0,13.0,66,0.00,,---,0.01,VWS V14.01,2014-01-01 16:27:00,
2014-01-01 09:32:00,23.6,13.6,30.36,NNW,328,16.0,16.0,65,0.00,,---,0.01,VWS V14.01,2014-01-01 16:32:00,
2014-01-01 09:37:00,24.0,14.6,30.37,NNW,334,11.0,11.0,67,0.00,,---,0.01,VWS V14.01,2014-01-01 16:37:00,
2014-01-01 09:42:00,24.0,15.0,30.37,NNW,333,6.0,6.0,68,0.00,,---,0.01,VWS V14.01,2014-01-01 16:42:00,
2014-01-01 09:47:00,24.2,13.8,30.36,NW,321,6.0,8.0,64,0.00,,---,0.01,VWS V14.01,2014-01-01 16:47:00,
2014-01-01 09:53:00,24.8,13.6,30.37,NW,316,7.0,9.0,62,0.00,,---,0.01,VWS V14.01,2014-01-01 16:53:00,
2014-01-01 09:58:00,24.7,13.9,30.37,NW,317,9.0,9.0,63,0.00,,---,0.01,VWS V14.01,2014-01-01 16:58:00,
2014-01-01 10:03:00,24.1,15.1,30.37,NW,323,5.0,7.0,68,0.00,,---,0.01,VWS V14.01,2014-01-01 17:03:00,
2014-01-01 10:08:00,25.0,14.2,30.38,NW,323,8.0,8.0,63,0.00,,---,0.01,VWS V14.01,2014-01-01 17:08:00,
2014-01-01 10:13:00,25.4,13.5,30.38,WNW,296,8.0,10.0,60,0.00,,---,0.01,VWS V14.01,2014-01-01 17:13:00,
2014-01-01 10:18:00,25.6,13.3,30.37,West,279,12.0,12.0,59,0.00,,---,0.01,VWS V14.01,2014-01-01 17:18:00,
2014-01-01 10:23:00,25.7,12.6,30.37,WNW,297,10.0,12.0,57,0.00,,---,0.01,VWS V14.01,2014-01-01 17:23:00,
2014-01-01 10:28:00,25.6,12.9,30.37,WNW,302,7.0,10.0,58,0.00,,---,0.01,VWS V14.01,2014-01-01 17:28:00,
2014-01-01 10:33:00,25.4,13.1,30.37,WNW,294,6.0,8.0,59,0.00,,---,0.01,VWS V14.01,2014-01-01 17:33:00,
2014-01-01 10:38:00,25.6,12.9,30.36,WNW,290,12.0,12.0,58,0.00,,---,0.01,VWS V14.01,2014-01-01 17:38:00,
2014-01-01 10:43:00,25.7,13.0,30.37,WNW,293,11.0,12.0,58,0.00,,---,0.01,VWS V14.01,2014-01-01 17:43:00,
2014-01-01 10:48:00,25.8,12.7,30.36,WNW,285,12.0,15.0,57,0.00,,---,0.01,VWS V14.01,2014-01-01 17:48:00,
2014-01-01 10:53:00,25.8,13.1,30.36,WNW,290,8.0,10.0,58,0.00,,---,0.01,VWS V14.01,2014-01-01 17:53:00,
2014-01-01 10:58:00,25.8,13.5,30.36,WNW,285,11.0,11.0,59,0.00,,---,0.01,VWS V14.01,2014-01-01 17:58:00,
2014-01-01 11:03:00,26.1,13.4,30.36,West,281,12.0,14.0,58,0.00,,---,0.01,VWS V14.01,2014-01-01 18:03:00,
2014-01-01 11:08:00,25.6,12.9,30.36,WNW,287,8.0,10.0,58,0.00,,---,0.01,VWS V14.01,2014-01-01 18:08:00,
2014-01-01 11:13:00,25.0,13.5,30.36,WNW,287,11.0,11.0,61,0.00,,---,0.01,VWS V14.01,2014-01-01 18:13:00,
2014-01-01 11:18:00,25.3,14.8,30.36,WNW,285,9.0,11.0,64,0.00,,---,0.01,VWS V14.01,2014-01-01 18:18:00,
2014-01-01 11:23:00,25.0,13.8,30.35,West,281,9.0,10.0,62,0.00,,---,0.01,VWS V14.01,2014-01-01 18:23:00,
2014-01-01 11:28:00,25.2,14.0,30.35,West,281,6.0,7.0,62,0.00,,---,0.01,VWS V14.01,2014-01-01 18:28:00,
2014-01-01 11:33:00,25.3,14.1,30.35,West,281,7.0,7.0,62,0.00,,---,0.01,VWS V14.01,2014-01-01 18:33:00,
2014-01-01 11:38:00,25.9,13.2,30.35,WNW,293,8.0,11.0,58,0.00,,---,0.01,VWS V14.01,2014-01-01 18:38:00,
2014-01-01 11:43:00,26.2,13.4,30.35,WNW,301,11.0,13.0,58,0.00,,---,0.01,VWS V14.01,2014-01-01 18:43:00,
2014-01-01 11:48:00,26.0,12.5,30.34,WNW,288,14.0,15.0,56,0.00,,---,0.01,VWS V14.01,2014-01-01 18:48:00,
2014-01-01 11:53:00,26.6,13.0,30.34,WNW,293,12.0,12.0,56,0.00,,---,0.01,VWS V14.01,2014-01-01 18:53:00,
2014-01-01 11:58:00,26.7,12.7,30.34,WNW,296,14.0,14.0,55,0.00,,---,0.01,VWS V14.01,2014-01-01 18:58:00,
2014-01-01 12:03:00,26.8,11.6,30.34,WNW,303,10.0,13.0,52,0.00,,---,0.01,VWS V14.01,2014-01-01 19:03:00,
2014-01-01 12:08:00,26.8,12.0,30.34,WNW,288,12.0,14.0,53,0.00,,---,0.01,VWS V14.01,2014-01-01 19:08:00,
2014-01-01 12:13:00,26.1,11.3,30.34,WNW,285,10.0,10.0,53,0.00,,---,0.01,VWS V14.01,2014-01-01 19:13:00,
2014-01-01 12:18:00,25.7,12.2,30.34,West,276,13.0,14.0,56,0.00,,---,0.01,VWS V14.01,2014-01-01 19:18:00,
2014-01-01 12:23:00,25.0,12.3,30.34,West,275,9.0,12.0,58,0.00,,---,0.01,VWS V14.01,2014-01-01 19:23:00,
2014-01-01 12:28:00,24.6,13.1,30.35,West,272,10.0,11.0,61,0.00,,---,0.01,VWS V14.01,2014-01-01 19:28:00,
2014-01-01 12:33:00,24.4,13.6,30.34,West,271,9.0,9.0,63,0.00,,---,0.01,VWS V14.01,2014-01-01 19:33:00,
2014-01-01 12:38:00,24.9,13.7,30.34,West,272,7.0,7.0,62,0.00,,---,0.01,VWS V14.01,2014-01-01 19:38:00,
2014-01-01 12:43:00,24.4,13.6,30.34,West,271,6.0,7.0,63,0.00,,---,0.01,VWS V14.01,2014-01-01 19:43:00,
2014-01-01 12:48:00,24.8,14.4,30.34,West,272,7.0,8.0,64,0.00,,---,0.01,VWS V14.01,2014-01-01 19:48:00,
2014-01-01 12:53:00,24.7,14.3,30.34,West,269,7.0,8.0,64,0.00,,---,0.01,VWS V14.01,2014-01-01 19:53:00,
2014-01-01 12:59:00,24.5,14.8,30.33,West,269,10.0,11.0,66,0.00,,---,0.01,VWS V14.01,2014-01-01 19:59:00,
2014-01-01 13:04:00,24.6,14.9,30.33,West,277,12.0,13.0,66,0.00,,---,0.01,VWS V14.01,2014-01-01 20:04:00,
2014-01-01 13:09:00,24.6,14.9,30.33,WNW,290,11.0,11.0,66,0.00,,---,0.01,VWS V14.01,2014-01-01 20:09:00,
2014-01-01 13:14:00,24.6,15.6,30.34,WNW,284,9.0,12.0,68,0.00,,---,0.01,VWS V14.01,2014-01-01 20:14:00,
2014-01-01 13:19:00,24.5,16.5,30.33,WNW,285,6.0,7.0,71,0.00,,---,0.01,VWS V14.01,2014-01-01 20:19:00,
2014-01-01 13:24:00,24.2,16.5,30.33,WNW,285,6.0,6.0,72,0.00,,---,0.01,VWS V14.01,2014-01-01 20:24:00,
2014-01-01 13:29:00,24.7,16.3,30.33,WNW,285,4.0,4.0,70,0.00,,---,0.01,VWS V14.01,2014-01-01 20:29:00,
2014-01-01 13:34:00,24.5,15.5,30.33,WNW,285,5.0,6.0,68,0.00,,---,0.01,VWS V14.01,2014-01-01 20:34:00,
2014-01-01 13:39:00,24.4,15.4,30.33,WNW,286,6.0,8.0,68,0.00,,---,0.01,VWS V14.01,2014-01-01 20:39:00,
2014-01-01 13:44:00,24.6,14.5,30.33,WNW,285,13.0,13.0,65,0.00,,---,0.01,VWS V14.01,2014-01-01 20:44:00,
2014-01-01 13:49:00,24.9,14.1,30.33,WNW,285,8.0,8.0,63,0.00,,---,0.01,VWS V14.01,2014-01-01 20:49:00,
2014-01-01 13:54:00,24.8,14.4,30.33,WNW,286,9.0,9.0,64,0.00,,---,0.01,VWS V14.01,2014-01-01 20:54:00,
2014-01-01 13:59:00,25.0,14.6,30.33,WNW,286,8.0,8.0,64,0.00,,---,0.01,VWS V14.01,2014-01-01 20:59:00,
2014-01-01 14:04:00,25.4,14.9,30.33,WNW,283,8.0,11.0,64,0.00,,---,0.01,VWS V14.01,2014-01-01 21:04:00,
2014-01-01 14:09:00,25.3,14.1,30.33,WNW,282,7.0,9.0,62,0.00,,---,0.01,VWS V14.01,2014-01-01 21:09:00,
2014-01-01 14:14:00,25.2,14.0,30.34,West,277,9.0,9.0,62,0.00,,---,0.01,VWS V14.01,2014-01-01 21:14:00,
2014-01-01 14:19:00,24.9,13.7,30.33,West,275,5.0,7.0,62,0.00,,---,0.01,VWS V14.01,2014-01-01 21:19:00,
2014-01-01 14:24:00,24.9,12.6,30.33,West,271,13.0,13.0,59,0.00,,---,0.01,VWS V14.01,2014-01-01 21:24:00,
2014-01-01 14:29:00,25.1,12.8,30.34,West,273,5.0,5.0,59,0.00,,---,0.01,VWS V14.01,2014-01-01 21:29:00,
2014-01-01 14:34:00,24.6,12.7,30.34,West,273,8.0,10.0,60,0.00,,---,0.01,VWS V14.01,2014-01-01 21:34:00,
2014-01-01 14:39:00,24.9,13.0,30.34,WNW,286,8.0,12.0,60,0.01,,---,0.02,VWS V14.01,2014-01-01 21:39:00,
2014-01-01 14:44:00,24.8,11.7,30.35,WNW,287,9.0,10.0,57,0.01,,---,0.02,VWS V14.01,2014-01-01 21:44:00,
2014-01-01 14:49:00,24.7,12.0,30.34,WNW,287,7.0,8.0,58,0.01,,---,0.02,VWS V14.01,2014-01-01 21:49:00,
2014-01-01 14:54:00,24.5,10.2,30.34,WNW,294,10.0,10.0,54,0.01,,---,0.02,VWS V14.01,2014-01-01 21:54:00,
2014-01-01 14:59:00,24.5,10.2,30.34,WNW,300,11.0,16.0,54,0.01,,---,0.02,VWS V14.01,2014-01-01 21:59:00,
2014-01-01 15:04:00,24.5,10.2,30.35,NW,311,18.0,22.0,54,0.01,,---,0.02,VWS V14.01,2014-01-01 22:04:00,
2014-01-01 15:09:00,24.5,11.1,30.35,WNW,290,10.0,16.0,56,0.01,,---,0.02,VWS V14.01,2014-01-01 22:09:00,
2014-01-01 15:14:00,24.3,10.5,30.35,WNW,290,9.0,11.0,55,0.01,,---,0.02,VWS V14.01,2014-01-01 22:14:00,
2014-01-01 15:19:00,24.4,10.1,30.35,WNW,300,7.0,9.0,54,0.01,,---,0.02,VWS V14.01,2014-01-01 22:19:00,
2014-01-01 15:24:00,24.4,9.7,30.35,WNW,299,8.0,13.0,53,0.01,,---,0.02,VWS V14.01,2014-01-01 22:24:00,
2014-01-01 15:29:00,24.5,10.2,30.35,NW,304,11.0,16.0,54,0.01,,---,0.02,VWS V14.01,2014-01-01 22:29:00,
2014-01-01 15:34:00,24.5,10.2,30.35,WNW,299,12.0,16.0,54,0.01,,---,0.02,VWS V14.01,2014-01-01 22:34:00,
2014-01-01 15:39:00,24.9,10.2,30.36,WNW,302,13.0,16.0,53,0.00,,---,0.02,VWS V14.01,2014-01-01 22:39:00,
2014-01-01 15:44:00,24.9,10.2,30.36,NW,319,11.0,11.0,53,0.00,,---,0.02,VWS V14.01,2014-01-01 22:44:00,
2014-01-01 15:49:00,25.0,10.7,30.36,WNW,302,15.0,16.0,54,0.00,,---,0.02,VWS V14.01,2014-01-01 22:49:00,
2014-01-01 15:54:00,25.1,11.6,30.36,WNW,291,14.0,16.0,56,0.00,,---,0.02,VWS V14.01,2014-01-01 22:54:00,
2014-01-01 15:59:00,24.9,10.6,30.36,WNW,293,12.0,14.0,54,0.00,,---,0.02,VWS V14.01,2014-01-01 22:59:00,
2014-01-01 16:04:00,24.7,10.4,30.36,WNW,302,14.0,14.0,54,0.00,,---,0.02,VWS V14.01,2014-01-01 23:04:00,
2014-01-01 16:09:00,24.6,11.2,30.36,WNW,294,15.0,15.0,56,0.00,,---,0.02,VWS V14.01,2014-01-01 23:09:00,
2014-01-01 16:14:00,24.5,10.7,30.37,NW,306,12.0,12.0,55,0.00,,---,0.02,VWS V14.01,2014-01-01 23:14:00,
2014-01-01 16:19:00,24.4,10.1,30.37,WNW,301,9.0,11.0,54,0.02,,---,0.04,VWS V14.01,2014-01-01 23:19:00,
2014-01-01 16:24:00,24.2,10.4,30.37,WNW,298,14.0,14.0,55,0.02,,---,0.04,VWS V14.01,2014-01-01 23:24:00,
2014-01-01 16:29:00,24.2,10.4,30.37,WNW,298,9.0,9.0,55,0.02,,---,0.04,VWS V14.01,2014-01-01 23:29:00,
2014-01-01 16:35:00,24.2,10.8,30.37,WNW,300,11.0,12.0,56,0.02,,---,0.04,VWS V14.01,2014-01-01 23:35:00,
2014-01-01 16:40:00,24.1,10.3,30.37,NW,304,11.0,11.0,55,0.02,,---,0.04,VWS V14.01,2014-01-01 23:40:00,
2014-01-01 16:45:00,24.0,10.2,30.37,NW,304,12.0,12.0,55,0.02,,---,0.04,VWS V14.01,2014-01-01 23:45:00,
2014-01-01 16:50:00,23.9,10.1,30.38,NW,308,9.0,10.0,55,0.02,,---,0.04,VWS V14.01,2014-01-01 23:50:00,
2014-01-01 16:55:00,23.1,8.5,30.38,NW,310,8.0,9.0,53,0.02,,---,0.04,VWS V14.01,2014-01-01 23:55:00,
2014-01-01 17:00:00,21.9,8.6,30.38,NW,311,10.0,11.0,56,0.02,,---,0.04,VWS V14.01,2014-01-02 00:00:00,
2014-01-01 17:05:00,22.2,9.3,30.39,NW,311,10.0,10.0,57,0.02,,---,0.04,VWS V14.01,2014-01-02 00:05:00,
2014-01-01 17:10:00,22.6,9.3,30.39,NW,311,9.0,9.0,56,0.02,,---,0.04,VWS V14.01,2014-01-02 00:10:00,
2014-01-01 17:15:00,22.7,9.0,30.39,NW,311,8.0,9.0,55,0.02,,---,0.04,VWS V14.01,2014-01-02 00:15:00,
2014-01-01 17:20:00,22.5,9.2,30.39,NW,311,9.0,10.0,56,0.00,,---,0.04,VWS V14.01,2014-01-02 00:20:00,
2014-01-01 17:25:00,22.4,9.1,30.39,NW,311,8.0,9.0,56,0.00,,---,0.04,VWS V14.01,2014-01-02 00:25:00,
2014-01-01 17:30:00,22.4,8.7,30.39,NW,311,9.0,9.0,55,0.00,,---,0.04,VWS V14.01,2014-01-02 00:30:00,
2014-01-01 17:35:00,22.3,8.6,30.39,NW,311,8.0,9.0,55,0.00,,---,0.04,VWS V14.01,2014-01-02 00:35:00,
2014-01-01 17:40:00,22.4,8.7,30.39,NW,311,8.0,11.0,55,0.00,,---,0.04,VWS V14.01,2014-01-02 00:40:00,
2014-01-01 17:45:00,22.5,8.4,30.39,NW,311,10.0,10.0,54,0.00,,---,0.04,VWS V14.01,2014-01-02 00:45:00,
2014-01-01 17:50:00,22.7,8.1,30.40,NW,311,7.0,8.0,53,0.00,,---,0.04,VWS V14.01,2014-01-02 00:50:00,
2014-01-01 17:55:00,22.5,7.5,30.40,NW,310,8.0,11.0,52,0.00,,---,0.04,VWS V14.01,2014-01-02 00:55:00,
2014-01-01 18:00:00,22.5,7.5,30.40,NW,310,6.0,10.0,52,0.00,,---,0.04,VWS V14.01,2014-01-02 01:00:00,
2014-01-01 18:05:00,22.3,6.9,30.40,NW,309,9.0,9.0,51,0.00,,---,0.04,VWS V14.01,2014-01-02 01:05:00,
2014-01-01 18:10:00,22.0,7.1,30.40,NW,309,8.0,9.0,52,0.00,,---,0.04,VWS V14.01,2014-01-02 01:10:00,
2014-01-01 18:15:00,21.4,6.1,30.41,NW,311,9.0,9.0,51,0.00,,---,0.04,VWS V14.01,2014-01-02 01:15:00,
2014-01-01 18:20:00,20.2,5.4,30.41,NW,315,12.0,12.0,52,0.00,,---,0.04,VWS V14.01,2014-01-02 01:20:00,
2014-01-01 18:25:00,19.6,6.1,30.41,NW,315,10.0,11.0,55,0.00,,---,0.04,VWS V14.01,2014-01-02 01:25:00,
2014-01-01 18:30:00,19.1,5.6,30.41,NW,315,11.0,12.0,55,0.00,,---,0.04,VWS V14.01,2014-01-02 01:30:00,
2014-01-01 18:35:00,19.1,6.0,30.42,NW,315,10.0,12.0,56,0.00,,---,0.04,VWS V14.01,2014-01-02 01:35:00,
2014-01-01 18:40:00,19.2,5.7,30.42,NW,315,8.0,10.0,55,0.00,,---,0.04,VWS V14.01,2014-01-02 01:40:00,
2014-01-01 18:45:00,18.8,5.3,30.42,NW,316,8.0,11.0,55,0.00,,---,0.04,VWS V14.01,2014-01-02 01:45:00,
2014-01-01 18:50:00,18.8,5.3,30.43,NW,317,10.0,11.0,55,0.00,,---,0.04,VWS V14.01,2014-01-02 01:50:00,
2014-01-01 18:55:00,18.6,5.1,30.43,NW,317,10.0,10.0,55,0.00,,---,0.04,VWS V14.01,2014-01-02 01:55:00,
2014-01-01 19:00:00,18.4,4.9,30.42,NW,318,12.0,12.0,55,0.00,,---,0.04,VWS V14.01,2014-01-02 02:00:00,
2014-01-01 19:05:00,17.9,4.5,30.43,NW,318,8.0,8.0,55,0.00,,---,0.04,VWS V14.01,2014-01-02 02:05:00,
2014-01-01 19:10:00,18.3,4.8,30.43,NW,318,7.0,7.0,55,0.00,,---,0.04,VWS V14.01,2014-01-02 02:10:00,
2014-01-01 19:15:00,18.9,5.0,30.43,NW,318,9.0,9.0,54,0.00,,---,0.04,VWS V14.01,2014-01-02 02:15:00,
2014-01-01 19:20:00,19.0,4.7,30.43,NW,318,9.0,9.0,53,0.00,,---,0.04,VWS V14.01,2014-01-02 02:20:00,
2014-01-01 19:25:00,19.1,4.8,30.43,NW,318,7.0,7.0,53,0.00,,---,0.04,VWS V14.01,2014-01-02 02:25:00,
2014-01-01 19:30:00,19.3,4.6,30.44,NW,318,9.0,10.0,52,0.00,,---,0.04,VWS V14.01,2014-01-02 02:30:00,
2014-01-01 19:36:00,19.5,4.8,30.44,NW,318,8.0,8.0,52,0.00,,---,0.04,VWS V14.01,2014-01-02 02:36:00,
2014-01-01 19:41:00,20.3,5.5,30.44,NW,318,9.0,9.0,52,0.00,,---,0.04,VWS V14.01,2014-01-02 02:41:00,
2014-01-01 19:46:00,20.7,5.4,30.44,NW,318,7.0,8.0,51,0.00,,---,0.04,VWS V14.01,2014-01-02 02:46:00,
2014-01-01 19:51:00,21.0,5.7,30.44,NW,317,8.0,8.0,51,0.00,,---,0.04,VWS V14.01,2014-01-02 02:51:00,
2014-01-01 19:56:00,21.4,5.7,30.44,NW,318,7.0,9.0,50,0.00,,---,0.04,VWS V14.01,2014-01-02 02:56:00,
2014-01-01 20:01:00,20.3,4.6,30.44,NW,318,5.0,5.0,50,0.00,,---,0.04,VWS V14.01,2014-01-02 03:01:00,
2014-01-01 20:06:00,19.5,4.3,30.44,NW,318,3.0,3.0,51,0.00,,---,0.04,VWS V14.01,2014-01-02 03:06:00,
2014-01-01 20:11:00,18.5,4.2,30.44,NW,318,4.0,4.0,53,0.00,,---,0.04,VWS V14.01,2014-01-02 03:11:00,
2014-01-01 20:16:00,17.3,3.1,30.44,NW,318,0.0,0.0,53,0.00,,---,0.04,VWS V14.01,2014-01-02 03:16:00,
2014-01-01 20:21:00,16.4,2.7,30.45,NW,318,0.0,0.0,54,0.00,,---,0.04,VWS V14.01,2014-01-02 03:21:00,
2014-01-01 20:26:00,15.3,3.2,30.45,NW,318,3.0,4.0,58,0.00,,---,0.04,VWS V14.01,2014-01-02 03:26:00,
2014-01-01 20:31:00,15.1,3.4,30.45,NW,318,2.0,6.0,59,0.00,,---,0.04,VWS V14.01,2014-01-02 03:31:00,
2014-01-01 20:36:00,15.2,4.5,30.45,NW,318,3.0,4.0,62,0.00,,---,0.04,VWS V14.01,2014-01-02 03:36:00,
2014-01-01 20:41:00,14.6,2.5,30.45,NW,318,5.0,6.0,58,0.00,,---,0.04,VWS V14.01,2014-01-02 03:41:00,
2014-01-01 20:46:00,14.0,3.0,30.45,NW,318,8.0,8.0,61,0.00,,---,0.04,VWS V14.01,2014-01-02 03:46:00,
2014-01-01 20:51:00,13.9,3.3,30.45,NW,318,8.0,9.0,62,0.00,,---,0.04,VWS V14.01,2014-01-02 03:51:00,
2014-01-01 20:56:00,14.1,3.8,30.45,NW,319,9.0,9.0,63,0.00,,---,0.04,VWS V14.01,2014-01-02 03:56:00,
2014-01-01 21:01:00,14.9,3.5,30.46,NW,319,7.0,7.0,60,0.00,,---,0.04,VWS V14.01,2014-01-02 04:01:00,
2014-01-01 21:06:00,15.1,4.8,30.46,NW,319,6.0,7.0,63,0.00,,---,0.04,VWS V14.01,2014-01-02 04:06:00,
2014-01-01 21:11:00,15.0,4.3,30.46,NW,319,5.0,8.0,62,0.00,,---,0.04,VWS V14.01,2014-01-02 04:11:00,
2014-01-01 21:16:00,14.7,3.7,30.47,NW,319,5.0,7.0,61,0.00,,---,0.04,VWS V14.01,2014-01-02 04:16:00,
2014-01-01 21:21:00,14.6,4.0,30.47,NW,319,2.0,4.0,62,0.00,,---,0.04,VWS V14.01,2014-01-02 04:21:00,
2014-01-01 21:26:00,14.1,3.8,30.48,NW,319,3.0,4.0,63,0.00,,---,0.04,VWS V14.01,2014-01-02 04:26:00,
2014-01-01 21:31:00,13.4,2.8,30.49,NW,319,0.0,2.0,62,0.00,,---,0.04,VWS V14.01,2014-01-02 04:31:00,
2014-01-01 21:36:00,12.6,2.1,30.49,NW,319,1.0,1.0,62,0.00,,---,0.04,VWS V14.01,2014-01-02 04:36:00,
2014-01-01 21:41:00,11.6,1.8,30.49,NW,319,0.0,0.0,64,0.00,,---,0.04,VWS V14.01,2014-01-02 04:41:00,
2014-01-01 21:46:00,10.9,1.8,30.49,NW,319,4.0,4.0,66,0.00,,---,0.04,VWS V14.01,2014-01-02 04:46:00,
2014-01-01 21:51:00,10.0,1.2,30.50,NW,319,0.0,0.0,67,0.00,,---,0.04,VWS V14.01,2014-01-02 04:51:00,
2014-01-01 21:56:00,9.7,1.6,30.50,NW,319,0.0,0.0,69,0.00,,---,0.04,VWS V14.01,2014-01-02 04:56:00,
2014-01-01 22:01:00,9.5,1.4,30.50,NW,319,10.0,10.0,69,0.00,,---,0.04,VWS V14.01,2014-01-02 05:01:00,
2014-01-01 22:02:00,9.5,1.4,30.50,NW,319,7.0,7.0,69,0.00,,---,0.04,VWS V14.01,2014-01-02 05:02:00,
2014-01-01 22:03:00,9.4,1.3,30.50,NW,319,2.0,5.0,69,0.00,,---,0.04,VWS V14.01,2014-01-02 05:03:00,
2014-01-01 22:08:00,9.4,1.6,30.51,NW,319,2.0,4.0,70,0.00,,---,0.04,VWS V14.01,2014-01-02 05:08:00,
2014-01-01 22:13:00,9.5,2.3,30.51,NW,319,2.0,2.0,72,0.00,,---,0.04,VWS V14.01,2014-01-02 05:13:00,
2014-01-01 22:18:00,9.8,2.6,30.51,NW,319,0.0,0.0,72,0.00,,---,0.04,VWS V14.01,2014-01-02 05:18:00,
2014-01-01 22:23:00,9.7,1.9,30.52,NW,319,1.0,3.0,70,0.00,,---,0.04,VWS V14.01,2014-01-02 05:23:00,
2014-01-01 22:28:00,9.9,2.7,30.52,NW,319,0.0,1.0,72,0.00,,---,0.04,VWS V14.01,2014-01-02 05:28:00,
2014-01-01 22:33:00,9.7,1.9,30.53,NW,319,1.0,3.0,70,0.00,,---,0.04,VWS V14.01,2014-01-02 05:33:00,
2014-01-01 22:38:00,9.4,1.3,30.53,NW,319,0.0,0.0,69,0.00,,---,0.04,VWS V14.01,2014-01-02 05:38:00,
2014-01-01 22:43:00,8.9,0.5,30.54,NW,319,0.0,0.0,68,0.00,,---,0.04,VWS V14.01,2014-01-02 05:43:00,
2014-01-01 22:48:00,8.3,0.9,30.54,NW,319,0.0,0.0,71,0.00,,---,0.04,VWS V14.01,2014-01-02 05:48:00,
2014-01-01 22:53:00,8.0,0.9,30.54,NW,319,5.0,5.0,72,0.00,,---,0.04,VWS V14.01,2014-01-02 05:53:00,
2014-01-01 22:58:00,7.9,1.1,30.54,NW,319,5.0,5.0,73,0.00,,---,0.04,VWS V14.01,2014-01-02 05:58:00,
2014-01-01 23:03:00,7.8,0.7,30.54,NW,319,6.0,6.0,72,0.00,,---,0.04,VWS V14.01,2014-01-02 06:03:00,
2014-01-01 23:08:00,7.2,0.1,30.54,NW,319,2.0,2.0,72,0.00,,---,0.04,VWS V14.01,2014-01-02 06:08:00,
2014-01-01 23:13:00,6.9,0.4,30.54,NW,319,0.0,1.0,74,0.00,,---,0.04,VWS V14.01,2014-01-02 06:13:00,
2014-01-01 23:18:00,6.7,0.2,30.54,NW,319,1.0,2.0,74,0.00,,---,0.04,VWS V14.01,2014-01-02 06:18:00,
2014-01-01 23:23:00,6.5,0.0,30.54,NW,319,4.0,4.0,74,0.00,,---,0.04,VWS V14.01,2014-01-02 06:23:00,
2014-01-01 23:28:00,6.7,0.5,30.54,NW,319,7.0,8.0,75,0.00,,---,0.04,VWS V14.01,2014-01-02 06:28:00,
2014-01-01 23:34:00,6.3,-0.2,30.54,NW,319,3.0,6.0,74,0.00,,---,0.04,VWS V14.01,2014-01-02 06:34:00,
2014-01-01 23:39:00,6.9,0.7,30.54,NW,319,3.0,3.0,75,0.00,,---,0.04,VWS V14.01,2014-01-02 06:39:00,
2014-01-01 23:44:00,6.5,-0.6,30.55,NW,319,0.0,0.0,72,0.00,,---,0.04,VWS V14.01,2014-01-02 06:44:00,
2014-01-01 23:49:00,5.9,-1.2,30.55,NW,319,1.0,2.0,72,0.00,,---,0.04,VWS V14.01,2014-01-02 06:49:00,
2014-01-01 23:54:00,5.3,-0.9,30.55,NW,319,0.0,0.0,75,0.00,,---,0.04,VWS V14.01,2014-01-02 06:54:00,
2014-01-01 23:59:00,5.3,-0.3,30.55,NW,319,0.0,0.0,77,0.00,,---,0.04,VWS V14.01,2014-01-02 06:59:00,